sensor_id;sensor_type;location;lat;lon;timestamp;P1;durP1;ratioP1;P2;durP2;ratioP2
17398;SDS011;8817;48.170;8.592;2023-05-21T00:00:49;10.52;;;7.35;;
17398;SDS011;8817;48.170;8.592;2023-05-21T00:03:17;9.68;;;7.65;;
17398;SDS011;8817;48.170;8.592;2023-05-21T00:05:45;12.02;;;7.30;;
17398;SDS011;8817;48.170;8.592;2023-05-21T00:08:14;11.52;;;7.68;;
17398;SDS011;8817;48.170;8.592;2023-05-21T00:10:42;10.07;;;7.40;;
17398;SDS011;8817;48.170;8.592;2023-05-21T00:13:09;13.25;;;7.65;;
17398;SDS011;8817;48.170;8.592;2023-05-21T00:15:36;10.70;;;7.80;;
17398;SDS011;8817;48.170;8.592;2023-05-21T00:18:03;9.45;;;7.40;;
17398;SDS011;8817;48.170;8.592;2023-05-21T00:20:30;10.07;;;7.55;;
17398;SDS011;8817;48.170;8.592;2023-05-21T00:22:57;11.75;;;7.82;;
17398;SDS011;8817;48.170;8.592;2023-05-21T00:25:26;12.05;;;7.80;;
17398;SDS011;8817;48.170;8.592;2023-05-21T00:27:55;12.23;;;7.82;;
17398;SDS011;8817;48.170;8.592;2023-05-21T00:30:22;11.00;;;7.60;;
17398;SDS011;8817;48.170;8.592;2023-05-21T00:32:49;9.60;;;7.50;;
17398;SDS011;8817;48.170;8.592;2023-05-21T00:35:16;11.50;;;7.80;;
17398;SDS011;8817;48.170;8.592;2023-05-21T00:37:43;9.77;;;7.72;;
17398;SDS011;8817;48.170;8.592;2023-05-21T00:40:11;10.45;;;7.72;;
17398;SDS011;8817;48.170;8.592;2023-05-21T00:42:38;13.98;;;8.32;;
17398;SDS011;8817;48.170;8.592;2023-05-21T00:45:07;10.32;;;7.82;;
17398;SDS011;8817;48.170;8.592;2023-05-21T00:47:34;12.68;;;7.90;;
17398;SDS011;8817;48.170;8.592;2023-05-21T00:50:03;9.98;;;7.82;;
17398;SDS011;8817;48.170;8.592;2023-05-21T00:52:31;9.63;;;7.38;;
17398;SDS011;8817;48.170;8.592;2023-05-21T00:55:05;10.15;;;7.55;;
17398;SDS011;8817;48.170;8.592;2023-05-21T00:57:34;9.25;;;7.63;;
17398;SDS011;8817;48.170;8.592;2023-05-21T01:00:02;12.80;;;8.38;;
17398;SDS011;8817;48.170;8.592;2023-05-21T01:02:34;10.93;;;7.85;;
17398;SDS011;8817;48.170;8.592;2023-05-21T01:05:02;13.23;;;7.85;;
17398;SDS011;8817;48.170;8.592;2023-05-21T01:07:30;11.95;;;8.02;;
17398;SDS011;8817;48.170;8.592;2023-05-21T01:09:59;12.65;;;7.75;;
17398;SDS011;8817;48.170;8.592;2023-05-21T01:12:28;11.73;;;8.13;;
17398;SDS011;8817;48.170;8.592;2023-05-21T01:14:56;17.20;;;8.25;;
17398;SDS011;8817;48.170;8.592;2023-05-21T01:17:24;12.45;;;7.70;;
17398;SDS011;8817;48.170;8.592;2023-05-21T01:19:54;14.50;;;8.50;;
17398;SDS011;8817;48.170;8.592;2023-05-21T01:22:23;10.55;;;7.57;;
17398;SDS011;8817;48.170;8.592;2023-05-21T01:24:54;11.85;;;7.82;;
17398;SDS011;8817;48.170;8.592;2023-05-21T01:27:20;11.85;;;8.32;;
17398;SDS011;8817;48.170;8.592;2023-05-21T01:29:47;11.13;;;7.53;;
17398;SDS011;8817;48.170;8.592;2023-05-21T01:32:15;10.65;;;8.02;;
17398;SDS011;8817;48.170;8.592;2023-05-21T01:34:49;10.68;;;7.85;;
17398;SDS011;8817;48.170;8.592;2023-05-21T01:37:22;12.48;;;8.23;;
17398;SDS011;8817;48.170;8.592;2023-05-21T01:39:57;13.18;;;8.38;;
17398;SDS011;8817;48.170;8.592;2023-05-21T01:42:27;12.70;;;8.18;;
17398;SDS011;8817;48.170;8.592;2023-05-21T01:44:56;12.55;;;8.20;;
17398;SDS011;8817;48.170;8.592;2023-05-21T01:47:26;13.02;;;8.25;;
17398;SDS011;8817;48.170;8.592;2023-05-21T01:49:57;10.25;;;8.10;;
17398;SDS011;8817;48.170;8.592;2023-05-21T01:52:25;10.50;;;7.90;;
17398;SDS011;8817;48.170;8.592;2023-05-21T01:54:52;11.48;;;8.23;;
17398;SDS011;8817;48.170;8.592;2023-05-21T01:57:21;11.02;;;7.97;;
17398;SDS011;8817;48.170;8.592;2023-05-21T01:59:48;10.77;;;7.80;;
17398;SDS011;8817;48.170;8.592;2023-05-21T02:02:14;15.07;;;8.07;;
17398;SDS011;8817;48.170;8.592;2023-05-21T02:04:41;14.77;;;8.40;;
17398;SDS011;8817;48.170;8.592;2023-05-21T02:07:10;12.15;;;8.35;;
17398;SDS011;8817;48.170;8.592;2023-05-21T02:09:38;10.80;;;7.63;;
17398;SDS011;8817;48.170;8.592;2023-05-21T02:12:05;12.38;;;8.73;;
17398;SDS011;8817;48.170;8.592;2023-05-21T02:14:35;11.35;;;8.10;;
17398;SDS011;8817;48.170;8.592;2023-05-21T02:17:03;12.55;;;8.38;;
17398;SDS011;8817;48.170;8.592;2023-05-21T02:19:32;11.45;;;8.00;;
17398;SDS011;8817;48.170;8.592;2023-05-21T02:21:59;11.70;;;7.88;;
17398;SDS011;8817;48.170;8.592;2023-05-21T02:24:25;11.57;;;8.48;;
17398;SDS011;8817;48.170;8.592;2023-05-21T02:26:53;10.32;;;7.93;;
17398;SDS011;8817;48.170;8.592;2023-05-21T02:29:20;11.15;;;8.10;;
17398;SDS011;8817;48.170;8.592;2023-05-21T02:31:48;11.88;;;8.13;;
17398;SDS011;8817;48.170;8.592;2023-05-21T02:34:15;11.90;;;8.38;;
17398;SDS011;8817;48.170;8.592;2023-05-21T02:36:44;12.85;;;8.93;;
17398;SDS011;8817;48.170;8.592;2023-05-21T02:39:12;11.30;;;7.75;;
17398;SDS011;8817;48.170;8.592;2023-05-21T02:41:39;11.27;;;8.15;;
17398;SDS011;8817;48.170;8.592;2023-05-21T02:44:06;15.77;;;8.75;;
17398;SDS011;8817;48.170;8.592;2023-05-21T02:46:33;11.38;;;8.32;;
17398;SDS011;8817;48.170;8.592;2023-05-21T02:49:01;12.43;;;8.30;;
17398;SDS011;8817;48.170;8.592;2023-05-21T02:51:28;11.32;;;7.97;;
17398;SDS011;8817;48.170;8.592;2023-05-21T02:53:55;13.25;;;7.97;;
17398;SDS011;8817;48.170;8.592;2023-05-21T02:56:22;12.90;;;7.97;;
17398;SDS011;8817;48.170;8.592;2023-05-21T02:58:50;12.05;;;8.40;;
17398;SDS011;8817;48.170;8.592;2023-05-21T03:01:17;11.15;;;8.10;;
17398;SDS011;8817;48.170;8.592;2023-05-21T03:03:44;12.88;;;8.52;;
17398;SDS011;8817;48.170;8.592;2023-05-21T03:06:12;16.02;;;8.90;;
17398;SDS011;8817;48.170;8.592;2023-05-21T03:08:40;12.52;;;8.13;;
17398;SDS011;8817;48.170;8.592;2023-05-21T03:11:07;10.75;;;7.88;;
17398;SDS011;8817;48.170;8.592;2023-05-21T03:13:34;12.88;;;8.48;;
17398;SDS011;8817;48.170;8.592;2023-05-21T03:16:01;11.70;;;8.40;;
17398;SDS011;8817;48.170;8.592;2023-05-21T03:18:27;14.23;;;8.75;;
17398;SDS011;8817;48.170;8.592;2023-05-21T03:20:54;11.93;;;8.30;;
17398;SDS011;8817;48.170;8.592;2023-05-21T03:23:24;12.98;;;8.45;;
17398;SDS011;8817;48.170;8.592;2023-05-21T03:25:51;12.52;;;8.30;;
17398;SDS011;8817;48.170;8.592;2023-05-21T03:28:18;12.65;;;8.80;;
17398;SDS011;8817;48.170;8.592;2023-05-21T03:30:45;12.88;;;8.32;;
17398;SDS011;8817;48.170;8.592;2023-05-21T03:33:13;14.32;;;8.15;;
17398;SDS011;8817;48.170;8.592;2023-05-21T03:35:40;12.48;;;8.20;;
17398;SDS011;8817;48.170;8.592;2023-05-21T03:38:07;12.90;;;8.20;;
17398;SDS011;8817;48.170;8.592;2023-05-21T03:40:35;15.70;;;8.65;;
17398;SDS011;8817;48.170;8.592;2023-05-21T03:43:02;13.02;;;8.52;;
17398;SDS011;8817;48.170;8.592;2023-05-21T03:45:29;18.45;;;8.20;;
17398;SDS011;8817;48.170;8.592;2023-05-21T03:47:56;12.57;;;8.88;;
17398;SDS011;8817;48.170;8.592;2023-05-21T03:50:23;15.52;;;8.02;;
17398;SDS011;8817;48.170;8.592;2023-05-21T03:52:50;14.02;;;8.45;;
17398;SDS011;8817;48.170;8.592;2023-05-21T03:55:17;13.52;;;8.90;;
17398;SDS011;8817;48.170;8.592;2023-05-21T03:57:45;12.20;;;8.25;;
17398;SDS011;8817;48.170;8.592;2023-05-21T04:00:12;13.30;;;8.20;;
17398;SDS011;8817;48.170;8.592;2023-05-21T04:02:39;13.10;;;8.68;;
17398;SDS011;8817;48.170;8.592;2023-05-21T04:05:06;13.93;;;8.75;;
17398;SDS011;8817;48.170;8.592;2023-05-21T04:07:34;14.23;;;8.45;;
17398;SDS011;8817;48.170;8.592;2023-05-21T04:10:02;14.60;;;8.45;;
17398;SDS011;8817;48.170;8.592;2023-05-21T04:12:30;14.90;;;8.70;;
17398;SDS011;8817;48.170;8.592;2023-05-21T04:14:58;13.57;;;8.27;;
17398;SDS011;8817;48.170;8.592;2023-05-21T04:17:26;12.93;;;8.90;;
17398;SDS011;8817;48.170;8.592;2023-05-21T04:19:53;13.10;;;8.52;;
17398;SDS011;8817;48.170;8.592;2023-05-21T04:22:20;11.70;;;8.15;;
17398;SDS011;8817;48.170;8.592;2023-05-21T04:24:50;12.95;;;8.05;;
17398;SDS011;8817;48.170;8.592;2023-05-21T04:27:20;15.40;;;8.30;;
17398;SDS011;8817;48.170;8.592;2023-05-21T04:29:48;12.77;;;8.15;;
17398;SDS011;8817;48.170;8.592;2023-05-21T04:32:16;13.50;;;8.70;;
17398;SDS011;8817;48.170;8.592;2023-05-21T04:34:43;11.85;;;8.48;;
17398;SDS011;8817;48.170;8.592;2023-05-21T04:37:10;14.73;;;8.90;;
17398;SDS011;8817;48.170;8.592;2023-05-21T04:39:41;12.95;;;8.95;;
17398;SDS011;8817;48.170;8.592;2023-05-21T04:42:08;12.05;;;8.55;;
17398;SDS011;8817;48.170;8.592;2023-05-21T04:44:35;14.63;;;8.82;;
17398;SDS011;8817;48.170;8.592;2023-05-21T04:47:04;13.63;;;9.18;;
17398;SDS011;8817;48.170;8.592;2023-05-21T04:49:33;13.70;;;8.38;;
17398;SDS011;8817;48.170;8.592;2023-05-21T04:52:00;14.02;;;8.82;;
17398;SDS011;8817;48.170;8.592;2023-05-21T04:54:27;14.45;;;9.30;;
17398;SDS011;8817;48.170;8.592;2023-05-21T04:56:54;13.93;;;9.10;;
17398;SDS011;8817;48.170;8.592;2023-05-21T04:59:22;14.00;;;8.45;;
17398;SDS011;8817;48.170;8.592;2023-05-21T05:01:49;14.32;;;8.45;;
17398;SDS011;8817;48.170;8.592;2023-05-21T05:04:15;13.55;;;9.02;;
17398;SDS011;8817;48.170;8.592;2023-05-21T05:06:44;15.80;;;8.93;;
17398;SDS011;8817;48.170;8.592;2023-05-21T05:09:11;15.63;;;9.25;;
17398;SDS011;8817;48.170;8.592;2023-05-21T05:11:38;13.77;;;8.90;;
17398;SDS011;8817;48.170;8.592;2023-05-21T05:14:05;13.43;;;8.90;;
17398;SDS011;8817;48.170;8.592;2023-05-21T05:16:32;13.57;;;8.57;;
17398;SDS011;8817;48.170;8.592;2023-05-21T05:18:59;15.18;;;9.00;;
17398;SDS011;8817;48.170;8.592;2023-05-21T05:21:26;14.13;;;9.18;;
17398;SDS011;8817;48.170;8.592;2023-05-21T05:23:54;15.10;;;8.55;;
17398;SDS011;8817;48.170;8.592;2023-05-21T05:26:21;15.98;;;9.02;;
17398;SDS011;8817;48.170;8.592;2023-05-21T05:28:48;18.52;;;9.30;;
17398;SDS011;8817;48.170;8.592;2023-05-21T05:31:15;14.10;;;8.70;;
17398;SDS011;8817;48.170;8.592;2023-05-21T05:33:42;16.10;;;9.52;;
17398;SDS011;8817;48.170;8.592;2023-05-21T05:36:09;15.95;;;9.57;;
17398;SDS011;8817;48.170;8.592;2023-05-21T05:38:36;14.23;;;9.30;;
17398;SDS011;8817;48.170;8.592;2023-05-21T05:41:05;13.55;;;8.77;;
17398;SDS011;8817;48.170;8.592;2023-05-21T05:43:31;13.70;;;8.75;;
17398;SDS011;8817;48.170;8.592;2023-05-21T05:45:58;15.23;;;9.27;;
17398;SDS011;8817;48.170;8.592;2023-05-21T05:48:25;12.80;;;8.68;;
17398;SDS011;8817;48.170;8.592;2023-05-21T05:50:52;13.23;;;8.90;;
17398;SDS011;8817;48.170;8.592;2023-05-21T05:53:21;14.15;;;8.80;;
17398;SDS011;8817;48.170;8.592;2023-05-21T05:55:48;15.98;;;8.68;;
17398;SDS011;8817;48.170;8.592;2023-05-21T05:58:16;14.15;;;9.07;;
17398;SDS011;8817;48.170;8.592;2023-05-21T06:00:43;12.98;;;8.95;;
17398;SDS011;8817;48.170;8.592;2023-05-21T06:03:10;12.93;;;9.13;;
17398;SDS011;8817;48.170;8.592;2023-05-21T06:05:37;14.05;;;8.95;;
17398;SDS011;8817;48.170;8.592;2023-05-21T06:08:04;16.00;;;8.95;;
17398;SDS011;8817;48.170;8.592;2023-05-21T06:10:31;19.02;;;9.23;;
17398;SDS011;8817;48.170;8.592;2023-05-21T06:12:58;15.00;;;8.75;;
17398;SDS011;8817;48.170;8.592;2023-05-21T06:15:26;12.82;;;8.65;;
17398;SDS011;8817;48.170;8.592;2023-05-21T06:17:53;14.65;;;9.15;;
17398;SDS011;8817;48.170;8.592;2023-05-21T06:20:20;14.63;;;9.10;;
17398;SDS011;8817;48.170;8.592;2023-05-21T06:22:47;14.20;;;9.30;;
17398;SDS011;8817;48.170;8.592;2023-05-21T06:25:14;16.25;;;8.77;;
17398;SDS011;8817;48.170;8.592;2023-05-21T06:27:42;15.35;;;9.50;;
17398;SDS011;8817;48.170;8.592;2023-05-21T06:30:09;15.38;;;9.23;;
17398;SDS011;8817;48.170;8.592;2023-05-21T06:32:37;11.80;;;8.43;;
17398;SDS011;8817;48.170;8.592;2023-05-21T06:35:05;14.52;;;8.70;;
17398;SDS011;8817;48.170;8.592;2023-05-21T06:37:32;14.30;;;9.25;;
17398;SDS011;8817;48.170;8.592;2023-05-21T06:39:59;14.45;;;9.23;;
17398;SDS011;8817;48.170;8.592;2023-05-21T06:42:26;17.60;;;9.85;;
17398;SDS011;8817;48.170;8.592;2023-05-21T06:44:52;16.92;;;9.55;;
17398;SDS011;8817;48.170;8.592;2023-05-21T06:47:20;18.83;;;9.38;;
17398;SDS011;8817;48.170;8.592;2023-05-21T06:49:48;15.73;;;9.63;;
17398;SDS011;8817;48.170;8.592;2023-05-21T06:52:15;14.63;;;9.15;;
17398;SDS011;8817;48.170;8.592;2023-05-21T06:54:42;16.88;;;9.73;;
17398;SDS011;8817;48.170;8.592;2023-05-21T06:57:08;16.58;;;9.55;;
17398;SDS011;8817;48.170;8.592;2023-05-21T06:59:35;21.05;;;9.68;;
17398;SDS011;8817;48.170;8.592;2023-05-21T07:02:02;16.60;;;9.40;;
17398;SDS011;8817;48.170;8.592;2023-05-21T07:04:29;16.02;;;9.18;;
17398;SDS011;8817;48.170;8.592;2023-05-21T07:06:57;16.05;;;9.43;;
17398;SDS011;8817;48.170;8.592;2023-05-21T07:09:24;14.93;;;8.93;;
17398;SDS011;8817;48.170;8.592;2023-05-21T07:11:51;12.60;;;8.50;;
17398;SDS011;8817;48.170;8.592;2023-05-21T07:14:18;14.50;;;8.88;;
17398;SDS011;8817;48.170;8.592;2023-05-21T07:16:45;14.02;;;8.93;;
17398;SDS011;8817;48.170;8.592;2023-05-21T07:19:13;13.50;;;9.20;;
17398;SDS011;8817;48.170;8.592;2023-05-21T07:21:40;16.23;;;9.30;;
17398;SDS011;8817;48.170;8.592;2023-05-21T07:24:08;18.10;;;9.40;;
17398;SDS011;8817;48.170;8.592;2023-05-21T07:26:35;15.57;;;9.70;;
17398;SDS011;8817;48.170;8.592;2023-05-21T07:29:02;14.50;;;9.43;;
17398;SDS011;8817;48.170;8.592;2023-05-21T07:31:29;14.55;;;9.27;;
17398;SDS011;8817;48.170;8.592;2023-05-21T07:33:56;15.45;;;8.95;;
17398;SDS011;8817;48.170;8.592;2023-05-21T07:36:22;16.30;;;9.25;;
17398;SDS011;8817;48.170;8.592;2023-05-21T07:38:50;20.98;;;9.75;;
17398;SDS011;8817;48.170;8.592;2023-05-21T07:41:18;13.30;;;8.70;;
17398;SDS011;8817;48.170;8.592;2023-05-21T07:43:46;16.23;;;9.13;;
17398;SDS011;8817;48.170;8.592;2023-05-21T07:46:13;18.13;;;9.30;;
17398;SDS011;8817;48.170;8.592;2023-05-21T07:48:39;14.70;;;9.02;;
17398;SDS011;8817;48.170;8.592;2023-05-21T07:51:08;14.73;;;8.75;;
17398;SDS011;8817;48.170;8.592;2023-05-21T07:53:35;14.45;;;8.88;;
17398;SDS011;8817;48.170;8.592;2023-05-21T07:56:02;12.68;;;8.63;;
17398;SDS011;8817;48.170;8.592;2023-05-21T07:58:30;13.93;;;8.68;;
17398;SDS011;8817;48.170;8.592;2023-05-21T08:00:59;14.65;;;8.93;;
17398;SDS011;8817;48.170;8.592;2023-05-21T08:03:26;14.32;;;8.38;;
17398;SDS011;8817;48.170;8.592;2023-05-21T08:05:54;12.35;;;8.23;;
17398;SDS011;8817;48.170;8.592;2023-05-21T08:08:21;13.50;;;8.95;;
17398;SDS011;8817;48.170;8.592;2023-05-21T08:10:48;17.25;;;9.05;;
17398;SDS011;8817;48.170;8.592;2023-05-21T08:13:15;12.52;;;8.20;;
17398;SDS011;8817;48.170;8.592;2023-05-21T08:15:44;15.77;;;8.52;;
17398;SDS011;8817;48.170;8.592;2023-05-21T08:18:11;12.77;;;8.95;;
17398;SDS011;8817;48.170;8.592;2023-05-21T08:20:38;17.17;;;9.75;;
17398;SDS011;8817;48.170;8.592;2023-05-21T08:23:05;13.23;;;8.45;;
17398;SDS011;8817;48.170;8.592;2023-05-21T08:25:32;13.88;;;8.80;;
17398;SDS011;8817;48.170;8.592;2023-05-21T08:27:59;14.98;;;8.52;;
17398;SDS011;8817;48.170;8.592;2023-05-21T08:30:26;15.85;;;9.32;;
17398;SDS011;8817;48.170;8.592;2023-05-21T08:32:54;13.93;;;8.95;;
17398;SDS011;8817;48.170;8.592;2023-05-21T08:35:21;13.52;;;8.18;;
17398;SDS011;8817;48.170;8.592;2023-05-21T08:37:48;16.33;;;8.80;;
17398;SDS011;8817;48.170;8.592;2023-05-21T08:40:15;13.38;;;8.85;;
17398;SDS011;8817;48.170;8.592;2023-05-21T08:42:42;12.85;;;8.55;;
17398;SDS011;8817;48.170;8.592;2023-05-21T08:45:11;14.75;;;8.90;;
17398;SDS011;8817;48.170;8.592;2023-05-21T08:47:40;11.38;;;8.15;;
17398;SDS011;8817;48.170;8.592;2023-05-21T08:50:10;15.32;;;9.02;;
17398;SDS011;8817;48.170;8.592;2023-05-21T08:52:38;14.73;;;8.18;;
17398;SDS011;8817;48.170;8.592;2023-05-21T08:55:06;13.38;;;8.30;;
17398;SDS011;8817;48.170;8.592;2023-05-21T08:57:34;12.48;;;8.43;;
17398;SDS011;8817;48.170;8.592;2023-05-21T09:00:02;13.38;;;8.43;;
17398;SDS011;8817;48.170;8.592;2023-05-21T09:02:32;14.40;;;8.50;;
17398;SDS011;8817;48.170;8.592;2023-05-21T09:05:02;12.32;;;8.52;;
17398;SDS011;8817;48.170;8.592;2023-05-21T09:07:33;13.82;;;8.07;;
17398;SDS011;8817;48.170;8.592;2023-05-21T09:10:06;12.32;;;8.20;;
17398;SDS011;8817;48.170;8.592;2023-05-21T09:12:37;12.35;;;8.38;;
17398;SDS011;8817;48.170;8.592;2023-05-21T09:15:04;14.60;;;8.38;;
17398;SDS011;8817;48.170;8.592;2023-05-21T09:17:32;11.45;;;8.23;;
17398;SDS011;8817;48.170;8.592;2023-05-21T09:20:06;12.50;;;8.98;;
17398;SDS011;8817;48.170;8.592;2023-05-21T09:22:40;11.23;;;8.20;;
17398;SDS011;8817;48.170;8.592;2023-05-21T09:25:09;13.23;;;8.40;;
17398;SDS011;8817;48.170;8.592;2023-05-21T09:27:37;11.02;;;8.07;;
17398;SDS011;8817;48.170;8.592;2023-05-21T09:30:06;14.05;;;8.38;;
17398;SDS011;8817;48.170;8.592;2023-05-21T09:32:35;10.77;;;8.30;;
17398;SDS011;8817;48.170;8.592;2023-05-21T09:35:06;12.18;;;8.20;;
17398;SDS011;8817;48.170;8.592;2023-05-21T09:37:37;11.25;;;8.15;;
17398;SDS011;8817;48.170;8.592;2023-05-21T09:40:14;14.32;;;8.18;;
17398;SDS011;8817;48.170;8.592;2023-05-21T09:42:42;9.93;;;7.80;;
17398;SDS011;8817;48.170;8.592;2023-05-21T09:45:10;14.23;;;8.27;;
17398;SDS011;8817;48.170;8.592;2023-05-21T09:47:41;11.68;;;7.97;;
17398;SDS011;8817;48.170;8.592;2023-05-21T09:50:09;12.20;;;8.52;;
17398;SDS011;8817;48.170;8.592;2023-05-21T09:52:36;10.85;;;8.20;;
17398;SDS011;8817;48.170;8.592;2023-05-21T09:55:05;9.90;;;7.65;;
17398;SDS011;8817;48.170;8.592;2023-05-21T09:57:39;9.20;;;7.80;;
17398;SDS011;8817;48.170;8.592;2023-05-21T10:00:08;13.63;;;8.18;;
17398;SDS011;8817;48.170;8.592;2023-05-21T10:02:42;13.07;;;8.20;;
17398;SDS011;8817;48.170;8.592;2023-05-21T10:05:10;9.98;;;7.68;;
17398;SDS011;8817;48.170;8.592;2023-05-21T10:07:39;11.13;;;7.70;;
17398;SDS011;8817;48.170;8.592;2023-05-21T10:10:09;11.32;;;7.50;;
17398;SDS011;8817;48.170;8.592;2023-05-21T10:12:39;10.95;;;7.65;;
17398;SDS011;8817;48.170;8.592;2023-05-21T10:15:08;11.50;;;7.57;;
17398;SDS011;8817;48.170;8.592;2023-05-21T10:17:40;12.10;;;7.90;;
17398;SDS011;8817;48.170;8.592;2023-05-21T10:20:09;12.15;;;7.68;;
17398;SDS011;8817;48.170;8.592;2023-05-21T10:22:37;8.60;;;7.38;;
17398;SDS011;8817;48.170;8.592;2023-05-21T10:25:05;11.45;;;7.72;;
17398;SDS011;8817;48.170;8.592;2023-05-21T10:27:35;9.15;;;7.47;;
17398;SDS011;8817;48.170;8.592;2023-05-21T10:30:02;8.35;;;7.15;;
17398;SDS011;8817;48.170;8.592;2023-05-21T10:32:31;10.50;;;7.57;;
17398;SDS011;8817;48.170;8.592;2023-05-21T10:34:58;10.60;;;7.72;;
17398;SDS011;8817;48.170;8.592;2023-05-21T10:37:26;11.50;;;7.93;;
17398;SDS011;8817;48.170;8.592;2023-05-21T10:39:54;9.48;;;7.70;;
17398;SDS011;8817;48.170;8.592;2023-05-21T10:42:25;10.60;;;7.28;;
17398;SDS011;8817;48.170;8.592;2023-05-21T10:45:19;9.65;;;7.57;;
17398;SDS011;8817;48.170;8.592;2023-05-21T10:48:02;13.93;;;7.45;;
17398;SDS011;8817;48.170;8.592;2023-05-21T10:50:42;12.70;;;8.05;;
17398;SDS011;8817;48.170;8.592;2023-05-21T10:53:20;11.07;;;8.02;;
17398;SDS011;8817;48.170;8.592;2023-05-21T10:55:57;11.25;;;7.45;;
17398;SDS011;8817;48.170;8.592;2023-05-21T10:58:53;9.50;;;7.28;;
17398;SDS011;8817;48.170;8.592;2023-05-21T11:01:34;13.27;;;7.90;;
17398;SDS011;8817;48.170;8.592;2023-05-21T11:04:03;9.15;;;7.30;;
17398;SDS011;8817;48.170;8.592;2023-05-21T11:06:30;10.20;;;7.43;;
17398;SDS011;8817;48.170;8.592;2023-05-21T11:08:59;8.88;;;7.45;;
17398;SDS011;8817;48.170;8.592;2023-05-21T11:11:40;9.00;;;7.30;;
17398;SDS011;8817;48.170;8.592;2023-05-21T11:14:29;12.90;;;7.20;;
17398;SDS011;8817;48.170;8.592;2023-05-21T11:16:59;10.25;;;7.05;;
17398;SDS011;8817;48.170;8.592;2023-05-21T11:19:33;11.75;;;7.55;;
17398;SDS011;8817;48.170;8.592;2023-05-21T11:22:04;11.93;;;8.07;;
17398;SDS011;8817;48.170;8.592;2023-05-21T11:24:37;9.80;;;7.88;;
17398;SDS011;8817;48.170;8.592;2023-05-21T11:27:05;11.27;;;7.65;;
17398;SDS011;8817;48.170;8.592;2023-05-21T11:29:40;9.98;;;7.57;;
17398;SDS011;8817;48.170;8.592;2023-05-21T11:32:09;10.40;;;7.57;;
17398;SDS011;8817;48.170;8.592;2023-05-21T11:34:37;8.48;;;6.95;;
17398;SDS011;8817;48.170;8.592;2023-05-21T11:39:56;9.10;;;7.55;;
17398;SDS011;8817;48.170;8.592;2023-05-21T11:42:42;8.35;;;7.10;;
17398;SDS011;8817;48.170;8.592;2023-05-21T11:45:15;8.23;;;7.32;;
17398;SDS011;8817;48.170;8.592;2023-05-21T11:47:43;7.68;;;6.78;;
17398;SDS011;8817;48.170;8.592;2023-05-21T11:50:11;7.32;;;6.63;;
17398;SDS011;8817;48.170;8.592;2023-05-21T11:52:39;7.03;;;6.32;;
17398;SDS011;8817;48.170;8.592;2023-05-21T11:55:07;7.80;;;6.50;;
17398;SDS011;8817;48.170;8.592;2023-05-21T11:57:35;7.20;;;6.20;;
17398;SDS011;8817;48.170;8.592;2023-05-21T12:00:06;8.98;;;6.50;;
17398;SDS011;8817;48.170;8.592;2023-05-21T12:02:44;7.63;;;6.47;;
17398;SDS011;8817;48.170;8.592;2023-05-21T12:05:12;7.28;;;6.35;;
17398;SDS011;8817;48.170;8.592;2023-05-21T12:07:39;8.43;;;6.30;;
17398;SDS011;8817;48.170;8.592;2023-05-21T12:10:06;6.55;;;5.95;;
17398;SDS011;8817;48.170;8.592;2023-05-21T12:12:34;7.45;;;6.57;;
17398;SDS011;8817;48.170;8.592;2023-05-21T12:15:01;7.50;;;6.65;;
17398;SDS011;8817;48.170;8.592;2023-05-21T12:17:29;6.80;;;6.10;;
17398;SDS011;8817;48.170;8.592;2023-05-21T12:19:58;6.85;;;6.18;;
17398;SDS011;8817;48.170;8.592;2023-05-21T12:22:29;6.65;;;5.80;;
17398;SDS011;8817;48.170;8.592;2023-05-21T12:24:56;7.32;;;6.00;;
17398;SDS011;8817;48.170;8.592;2023-05-21T12:27:25;6.18;;;5.65;;
17398;SDS011;8817;48.170;8.592;2023-05-21T12:29:52;6.47;;;5.88;;
17398;SDS011;8817;48.170;8.592;2023-05-21T12:32:19;7.00;;;6.30;;
17398;SDS011;8817;48.170;8.592;2023-05-21T12:34:47;12.18;;;6.60;;
17398;SDS011;8817;48.170;8.592;2023-05-21T12:37:17;7.75;;;6.55;;
17398;SDS011;8817;48.170;8.592;2023-05-21T12:39:46;7.35;;;6.65;;
17398;SDS011;8817;48.170;8.592;2023-05-21T12:42:14;7.78;;;6.78;;
17398;SDS011;8817;48.170;8.592;2023-05-21T12:44:42;9.48;;;6.53;;
17398;SDS011;8817;48.170;8.592;2023-05-21T12:47:10;7.25;;;6.55;;
17398;SDS011;8817;48.170;8.592;2023-05-21T12:49:38;8.05;;;6.68;;
17398;SDS011;8817;48.170;8.592;2023-05-21T12:52:07;7.97;;;6.80;;
17398;SDS011;8817;48.170;8.592;2023-05-21T12:54:37;10.52;;;7.45;;
17398;SDS011;8817;48.170;8.592;2023-05-21T12:57:05;7.85;;;7.03;;
17398;SDS011;8817;48.170;8.592;2023-05-21T12:59:43;10.90;;;7.03;;
17398;SDS011;8817;48.170;8.592;2023-05-21T13:02:18;8.02;;;6.82;;
17398;SDS011;8817;48.170;8.592;2023-05-21T13:04:46;12.90;;;7.47;;
17398;SDS011;8817;48.170;8.592;2023-05-21T13:07:13;8.98;;;7.13;;
17398;SDS011;8817;48.170;8.592;2023-05-21T13:09:42;9.25;;;7.05;;
17398;SDS011;8817;48.170;8.592;2023-05-21T13:12:10;7.97;;;7.05;;
17398;SDS011;8817;48.170;8.592;2023-05-21T13:14:37;10.30;;;7.63;;
17398;SDS011;8817;48.170;8.592;2023-05-21T13:17:04;10.73;;;7.65;;
17398;SDS011;8817;48.170;8.592;2023-05-21T13:19:31;8.95;;;7.15;;
17398;SDS011;8817;48.170;8.592;2023-05-21T13:21:58;8.73;;;7.05;;
17398;SDS011;8817;48.170;8.592;2023-05-21T13:24:25;10.20;;;7.30;;
17398;SDS011;8817;48.170;8.592;2023-05-21T13:26:53;8.57;;;7.22;;
17398;SDS011;8817;48.170;8.592;2023-05-21T13:29:20;9.80;;;7.78;;
17398;SDS011;8817;48.170;8.592;2023-05-21T13:31:47;10.07;;;7.15;;
17398;SDS011;8817;48.170;8.592;2023-05-21T13:34:14;8.75;;;7.07;;
17398;SDS011;8817;48.170;8.592;2023-05-21T13:36:41;9.50;;;7.82;;
17398;SDS011;8817;48.170;8.592;2023-05-21T13:39:08;11.88;;;7.43;;
17398;SDS011;8817;48.170;8.592;2023-05-21T13:41:35;12.32;;;8.10;;
17398;SDS011;8817;48.170;8.592;2023-05-21T13:44:03;9.52;;;7.53;;
17398;SDS011;8817;48.170;8.592;2023-05-21T13:46:30;8.98;;;7.40;;
17398;SDS011;8817;48.170;8.592;2023-05-21T13:48:57;10.70;;;7.35;;
17398;SDS011;8817;48.170;8.592;2023-05-21T13:51:24;8.95;;;7.25;;
17398;SDS011;8817;48.170;8.592;2023-05-21T13:53:51;10.88;;;8.00;;
17398;SDS011;8817;48.170;8.592;2023-05-21T13:56:19;8.77;;;7.07;;
17398;SDS011;8817;48.170;8.592;2023-05-21T13:58:47;11.02;;;7.50;;
17398;SDS011;8817;48.170;8.592;2023-05-21T14:01:15;12.10;;;7.90;;
17398;SDS011;8817;48.170;8.592;2023-05-21T14:03:42;9.02;;;7.43;;
17398;SDS011;8817;48.170;8.592;2023-05-21T14:06:09;10.30;;;7.78;;
17398;SDS011;8817;48.170;8.592;2023-05-21T14:08:36;10.60;;;7.78;;
17398;SDS011;8817;48.170;8.592;2023-05-21T14:11:03;12.55;;;7.55;;
17398;SDS011;8817;48.170;8.592;2023-05-21T14:13:30;8.93;;;7.10;;
17398;SDS011;8817;48.170;8.592;2023-05-21T14:15:57;8.90;;;7.00;;
17398;SDS011;8817;48.170;8.592;2023-05-21T14:18:25;8.45;;;6.97;;
17398;SDS011;8817;48.170;8.592;2023-05-21T14:20:52;9.60;;;7.47;;
17398;SDS011;8817;48.170;8.592;2023-05-21T14:23:19;8.75;;;7.43;;
17398;SDS011;8817;48.170;8.592;2023-05-21T14:25:46;9.98;;;7.15;;
17398;SDS011;8817;48.170;8.592;2023-05-21T14:28:13;8.88;;;7.25;;
17398;SDS011;8817;48.170;8.592;2023-05-21T14:30:40;10.00;;;7.35;;
17398;SDS011;8817;48.170;8.592;2023-05-21T14:33:07;9.65;;;7.22;;
17398;SDS011;8817;48.170;8.592;2023-05-21T14:35:35;8.60;;;7.00;;
17398;SDS011;8817;48.170;8.592;2023-05-21T14:38:02;8.10;;;6.97;;
17398;SDS011;8817;48.170;8.592;2023-05-21T14:40:29;9.95;;;6.93;;
17398;SDS011;8817;48.170;8.592;2023-05-21T14:42:55;7.45;;;6.65;;
17398;SDS011;8817;48.170;8.592;2023-05-21T14:45:22;10.88;;;7.10;;
17398;SDS011;8817;48.170;8.592;2023-05-21T14:47:49;7.78;;;6.95;;
17398;SDS011;8817;48.170;8.592;2023-05-21T14:50:16;7.38;;;6.68;;
17398;SDS011;8817;48.170;8.592;2023-05-21T14:52:44;7.72;;;6.78;;
17398;SDS011;8817;48.170;8.592;2023-05-21T14:55:11;10.32;;;7.28;;
17398;SDS011;8817;48.170;8.592;2023-05-21T14:57:40;7.93;;;6.90;;
17398;SDS011;8817;48.170;8.592;2023-05-21T15:00:07;9.93;;;7.43;;